Time;durP1;ratioP1;P1;durP2;ratioP2;P2;SDS_P1;SDS_P2;PMS_P1;PMS_P2;Temp;Humidity;BMP_temperature;BMP_pressure;BME280_temperature;BME280_humidity;BME280_pressure;Samples;Min_cycle;Max_cycle;Signal;HPM_P1;HPM_P2
2023/01/23 00:01:38;;;;;;;;;;;;;;;;;;5075893;28;19924;-58
2023/01/23 00:04:04;;;;;;;;;;;;;;;;;;5076888;28;20350;-59
2023/01/23 00:06:29;;;;;;;;;;;;;;;;;;5073710;28;20302;-58
2023/01/23 00:08:55;;;;;;;;;;;;;;;;;;5079256;28;19924;-60
2023/01/23 00:11:21;;;;;;;;;;;;;;;;;;5070831;28;20007;-58
2023/01/23 00:13:47;;;;;;;;;;;;;;;;;;5073832;28;20372;-58
2023/01/23 00:16:13;;;;;;;;;;;;;;;;;;5075015;28;20026;-58
2023/01/23 00:18:39;;;;;;;;;;;;;;;;;;5074008;28;20296;-58
2023/01/23 00:21:05;;;;;;;;;;;;;;;;;;5081127;28;19935;-58
2023/01/23 00:23:31;;;;;;;;;;;;;;;;;;5076412;28;19927;-58
2023/01/23 00:25:57;;;;;;;;;;;;;;;;;;5075653;28;19935;-60
2023/01/23 00:28:23;;;;;;;;;;;;;;;;;;5074915;28;19920;-60
2023/01/23 00:30:49;;;;;;;;;;;;;;;;;;5070460;28;19955;-58
2023/01/23 00:33:14;;;;;;;;;;;;;;;;;;5069452;28;20007;-58
2023/01/23 00:35:40;;;;;;;;;;;;;;;;;;5075046;28;20126;-58
2023/01/23 00:38:06;;;;;;;;;;;;;;;;;;5074926;28;19920;-58
2023/01/23 00:40:32;;;;;;;;;;;;;;;;;;5076462;28;20179;-59
2023/01/23 00:42:58;;;;;;;;;;;;;;;;;;5071281;28;19927;-58
2023/01/23 00:45:24;;;;;;;;;;;;;;;;;;5071027;28;19997;-60
2023/01/23 00:47:50;;;;;;;;;;;;;;;;;;5070018;28;20448;-58
2023/01/23 00:50:16;;;;;;;;;;;;;;;;;;5066340;28;19959;-58
2023/01/23 00:52:42;;;;;;;;;;;;;;;;;;5065274;28;20015;-58
2023/01/23 00:55:08;;;;;;;;;;;;;;;;;;5064638;28;19924;-57
2023/01/23 00:57:33;;;;;;;;;;;;;;;;;;5076695;28;19920;-58
2023/01/23 00:59:59;;;;;;;;;;;;;;;;;;5069955;28;20019;-58
2023/01/23 01:02:25;;;;;;;;;;;;;;;;;;5070138;28;20303;-58
2023/01/23 01:04:51;;;;;;;;;;;;;;;;;;5064281;28;19924;-60
2023/01/23 01:07:17;;;;;;;;;;;;;;;;;;5072455;28;20274;-59
2023/01/23 01:09:43;;;;;;;;;;;;;;;;;;5074960;28;19935;-58
2023/01/23 01:12:09;;;;;;;;;;;;;;;;;;5064753;28;20391;-58
2023/01/23 01:14:35;;;;;;;;;;;;;;;;;;5062442;28;19928;-58
2023/01/23 01:17:01;;;;;;;;;;;;;;;;;;5064950;28;19920;-58
2023/01/23 01:19:28;;;;;;;;;;;;;;;;;;5063939;28;20471;-58
2023/01/23 01:21:54;;;;;;;;;;;;;;;;;;5062109;28;19921;-58
2023/01/23 01:24:20;;;;;;;;;;;;;;;;;;5064183;28;19947;-60
2023/01/23 01:26:45;;;;;;;;;;;;;;;;;;5071250;28;19930;-58
2023/01/23 01:29:11;;;;;;;;;;;;;;;;;;5071199;28;19965;-60
2023/01/23 01:31:37;;;;;;;;;;;;;;;;;;5064404;28;20285;-60
2023/01/23 01:34:03;;;;;;;;;;;;;;;;;;5067547;28;19930;-58
2023/01/23 01:36:29;;;;;;;;;;;;;;;;;;5069558;28;19929;-58
2023/01/23 01:38:55;;;;;;;;;;;;;;;;;;5071628;28;19928;-60
2023/01/23 01:41:21;;;;;;;;;;;;;;;;;;5066847;28;19924;-58
2023/01/23 01:43:47;;;;;;;;;;;;;;;;;;5069577;28;19920;-60
2023/01/23 01:46:13;;;;;;;;;;;;;;;;;;5071145;28;19929;-58
2023/01/23 01:48:39;;;;;;;;;;;;;;;;;;5075696;28;19924;-58
2023/01/23 01:51:04;;;;;;;;;;;;;;;;;;5072375;28;20120;-59
2023/01/23 01:53:30;;;;;;;;;;;;;;;;;;5072242;28;20058;-58
2023/01/23 01:55:56;;;;;;;;;;;;;;;;;;5072755;28;19984;-57
2023/01/23 01:58:22;;;;;;;;;;;;;;;;;;5071347;28;20376;-60
2023/01/23 02:00:48;;;;;;;;;;;;;;;;;;5070647;28;19927;-60
2023/01/23 02:03:15;;;;;;;;;;;;;;;;;;5065984;28;19920;-58
2023/01/23 02:05:41;;;;;;;;;;;;;;;;;;5068861;28;20343;-58
2023/01/23 02:08:08;;;;;;;;;;;;;;;;;;5066995;28;19925;-58
2023/01/23 02:10:35;;;;;;;;;;;;;;;;;;5062675;28;19924;-58
2023/01/23 02:13:01;;;;;;;;;;;;;;;;;;5064377;28;19927;-59
2023/01/23 02:15:26;;;;;;;;;;;;;;;;;;5066377;28;19920;-60
2023/01/23 02:17:53;;;;;;;;;;;;;;;;;;5072582;28;19924;-58
2023/01/23 02:20:19;;;;;;;;;;;;;;;;;;5067145;28;19920;-58
2023/01/23 02:22:45;;;;;;;;;;;;;;;;;;5074959;28;19977;-60
2023/01/23 02:25:11;;;;;;;;;;;;;;;;;;5066410;28;20442;-58
2023/01/23 02:27:37;;;;;;;;;;;;;;;;;;5074459;28;19932;-58
2023/01/23 02:30:04;;;;;;;;;;;;;;;;;;5066886;28;20323;-58
2023/01/23 02:32:30;;;;;;;;;;;;;;;;;;5065560;28;19978;-58
2023/01/23 02:34:56;;;;;;;;;;;;;;;;;;5079696;28;19921;-59
2023/01/23 02:37:22;;;;;;;;;;;;;;;;;;5074566;28;19967;-58
2023/01/23 02:39:48;;;;;;;;;;;;;;;;;;5077095;28;20402;-59
2023/01/23 02:42:14;;;;;;;;;;;;;;;;;;5068179;28;19927;-59
2023/01/23 02:44:40;;;;;;;;;;;;;;;;;;5065986;28;19966;-58
2023/01/23 02:47:11;;;;;;;;;;;;;;;;;;5067919;28;20401;-58
2023/01/23 02:49:37;;;;;;;;;;;;;;;;;;5067039;28;19936;-60
2023/01/23 02:52:03;;;;;;;;;;;;;;;;;;5066167;28;19927;-58
2023/01/23 02:54:29;;;;;;;;;;;;;;;;;;5066218;28;19920;-58
2023/01/23 02:56:56;;;;;;;;;;;;;;;;;;5066756;28;20152;-58
2023/01/23 03:02:06;;;;;;;;;;;;;;;;;;5084901;28;19951;-58
2023/01/23 03:04:32;;;;;;;;;;;;;;;;;;5068553;28;19975;-58
2023/01/23 03:06:58;;;;;;;;;;;;;;;;;;5071908;28;19926;-58
2023/01/23 03:09:24;;;;;;;;;;;;;;;;;;5065397;28;19920;-60
2023/01/23 03:11:51;;;;;;;;;;;;;;;;;;5066032;28;20343;-59
2023/01/23 03:14:16;;;;;;;;;;;;;;;;;;5065084;28;19986;-58
2023/01/23 03:16:45;;;;;;;;;;;;;;;;;;5066692;28;19924;-60
2023/01/23 03:19:11;;;;;;;;;;;;;;;;;;5066017;28;19946;-58
2023/01/23 03:21:38;;;;;;;;;;;;;;;;;;5078288;28;20353;-58
2023/01/23 03:24:04;;;;;;;;;;;;;;;;;;5073201;28;19962;-60
2023/01/23 03:26:30;;;;;;;;;;;;;;;;;;5071170;28;19971;-58
2023/01/23 03:31:41;;;;;;;;;;;;;;;;;;5081020;28;20288;-58
2023/01/23 03:34:07;;;;;;;;;;;;;;;;;;5072837;28;19924;-60
2023/01/23 03:36:36;;;;;;;;;;;;;;;;;;5071225;28;20011;-58
2023/01/23 03:41:47;;;;;;;;;;;;;;;;;;5075906;28;19920;-59
2023/01/23 03:44:13;;;;;;;;;;;;;;;;;;5076660;28;19924;-58
2023/01/23 03:46:38;;;;;;;;;;;;;;;;;;5072358;28;19927;-60
2023/01/23 03:49:04;;;;;;;;;;;;;;;;;;5074925;28;19931;-58
2023/01/23 03:51:30;;;;;;;;;;;;;;;;;;5069419;28;19931;-58
2023/01/23 03:53:56;;;;;;;;;;;;;;;;;;5070133;28;20214;-60
2023/01/23 03:56:22;;;;;;;;;;;;;;;;;;5070090;28;19920;-58
2023/01/23 03:58:48;;;;;;;;;;;;;;;;;;5082000;28;19927;-58
2023/01/23 04:01:14;;;;;;;;;;;;;;;;;;5074270;28;19928;-59
2023/01/23 04:03:40;;;;;;;;;;;;;;;;;;5072642;28;20403;-58
2023/01/23 04:06:06;;;;;;;;;;;;;;;;;;5065392;28;19950;-59
2023/01/23 04:08:31;;;;;;;;;;;;;;;;;;5069811;28;19967;-59
2023/01/23 04:10:58;;;;;;;;;;;;;;;;;;5064806;28;19921;-59
2023/01/23 04:13:24;;;;;;;;;;;;;;;;;;5064152;28;20305;-59
2023/01/23 04:15:50;;;;;;;;;;;;;;;;;;5074473;28;19930;-58
2023/01/23 04:18:15;;;;;;;;;;;;;;;;;;5067792;28;20504;-58
2023/01/23 04:20:41;;;;;;;;;;;;;;;;;;5072275;28;19924;-57
2023/01/23 04:23:07;;;;;;;;;;;;;;;;;;5064705;28;20695;-58
2023/01/23 04:25:33;;;;;;;;;;;;;;;;;;5064161;28;20040;-58
2023/01/23 04:27:59;;;;;;;;;;;;;;;;;;5065379;28;19959;-58
2023/01/23 04:30:25;;;;;;;;;;;;;;;;;;5062873;28;19935;-59
2023/01/23 04:32:51;;;;;;;;;;;;;;;;;;5064649;28;20402;-59
2023/01/23 04:35:17;;;;;;;;;;;;;;;;;;5072262;28;19920;-58
2023/01/23 04:37:43;;;;;;;;;;;;;;;;;;5071706;28;19921;-58
2023/01/23 04:40:09;;;;;;;;;;;;;;;;;;5064627;28;20364;-58
2023/01/23 04:42:35;;;;;;;;;;;;;;;;;;5064401;28;19925;-60
2023/01/23 04:45:00;;;;;;;;;;;;;;;;;;5064029;28;19921;-60
2023/01/23 04:47:26;;;;;;;;;;;;;;;;;;5063838;28;19927;-58
2023/01/23 04:49:52;;;;;;;;;;;;;;;;;;5069797;28;20390;-59
2023/01/23 04:52:18;;;;;;;;;;;;;;;;;;5073625;28;19920;-58
2023/01/23 04:54:44;;;;;;;;;;;;;;;;;;5072535;28;19928;-59
2023/01/23 04:57:10;;;;;;;;;;;;;;;;;;5064285;28;20057;-58
2023/01/23 04:59:36;;;;;;;;;;;;;;;;;;5073754;28;19944;-58
2023/01/23 05:02:02;;;;;;;;;;;;;;;;;;5069242;28;19920;-58
2023/01/23 05:04:28;;;;;;;;;;;;;;;;;;5063882;28;19924;-60
2023/01/23 05:06:54;;;;;;;;;;;;;;;;;;5065829;28;19979;-58
2023/01/23 05:09:19;;;;;;;;;;;;;;;;;;5064898;28;19975;-58
2023/01/23 05:11:45;;;;;;;;;;;;;;;;;;5076223;28;19924;-58
2023/01/23 05:14:11;;;;;;;;;;;;;;;;;;5067221;28;19966;-58
2023/01/23 05:16:37;;;;;;;;;;;;;;;;;;5064472;28;19981;-59
2023/01/23 05:19:03;;;;;;;;;;;;;;;;;;5066851;28;20010;-58
2023/01/23 05:21:29;;;;;;;;;;;;;;;;;;5063852;28;20398;-60
2023/01/23 05:23:55;;;;;;;;;;;;;;;;;;5074171;28;20015;-60
2023/01/23 05:26:21;;;;;;;;;;;;;;;;;;5071548;28;20015;-58
2023/01/23 05:28:47;;;;;;;;;;;;;;;;;;5069311;28;19926;-59
2023/01/23 05:31:13;;;;;;;;;;;;;;;;;;5080841;28;20035;-58
2023/01/23 05:33:39;;;;;;;;;;;;;;;;;;5071434;28;19924;-58
2023/01/23 05:36:05;;;;;;;;;;;;;;;;;;5072539;28;20330;-58
2023/01/23 05:38:31;;;;;;;;;;;;;;;;;;5068940;28;19927;-58
2023/01/23 05:40:57;;;;;;;;;;;;;;;;;;5071752;28;19943;-60
2023/01/23 05:43:23;;;;;;;;;;;;;;;;;;5069348;28;19924;-60
2023/01/23 05:45:48;;;;;;;;;;;;;;;;;;5071292;28;19967;-58
2023/01/23 05:48:14;;;;;;;;;;;;;;;;;;5071311;28;19971;-59
2023/01/23 05:50:40;;;;;;;;;;;;;;;;;;5075016;28;19924;-58
2023/01/23 05:53:06;;;;;;;;;;;;;;;;;;5077264;28;19920;-59
2023/01/23 05:55:32;;;;;;;;;;;;;;;;;;5073183;28;20299;-59
2023/01/23 05:57:58;;;;;;;;;;;;;;;;;;5071693;28;19920;-60
2023/01/23 06:00:24;;;;;;;;;;;;;;;;;;5078489;28;19921;-58
2023/01/23 06:02:50;;;;;;;;;;;;;;;;;;5077122;28;19924;-60
2023/01/23 06:05:16;;;;;;;;;;;;;;;;;;5078936;28;20287;-58
2023/01/23 06:07:42;;;;;;;;;;;;;;;;;;5075974;28;19924;-59
2023/01/23 06:10:07;;;;;;;;;;;;;;;;;;5074282;28;19920;-60
2023/01/23 06:12:33;;;;;;;;;;;;;;;;;;5071725;28;19925;-58
2023/01/23 06:14:59;;;;;;;;;;;;;;;;;;5075464;28;19924;-60
2023/01/23 06:17:26;;;;;;;;;;;;;;;;;;5072772;28;19978;-58
2023/01/23 06:19:52;;;;;;;;;;;;;;;;;;5075473;28;20364;-58
2023/01/23 06:22:18;;;;;;;;;;;;;;;;;;5071959;28;20023;-60
2023/01/23 06:24:44;;;;;;;;;;;;;;;;;;5081210;28;20017;-58
2023/01/23 06:27:10;;;;;;;;;;;;;;;;;;5075790;28;19928;-58
2023/01/23 06:29:36;;;;;;;;;;;;;;;;;;5074218;28;19931;-58
2023/01/23 06:32:02;;;;;;;;;;;;;;;;;;5067937;28;20272;-59
2023/01/23 06:34:27;;;;;;;;;;;;;;;;;;5070047;28;19967;-58
2023/01/23 06:36:53;;;;;;;;;;;;;;;;;;5080952;28;19926;-58
2023/01/23 06:39:19;;;;;;;;;;;;;;;;;;5072657;28;20276;-58
2023/01/23 06:41:45;;;;;;;;;;;;;;;;;;5076724;28;19925;-60
2023/01/23 06:44:11;;;;;;;;;;;;;;;;;;5079988;28;19934;-58
2023/01/23 06:46:37;;;;;;;;;;;;;;;;;;5077875;28;19924;-58
2023/01/23 06:49:03;;;;;;;;;;;;;;;;;;5082027;28;19920;-58
2023/01/23 06:51:29;;;;;;;;;;;;;;;;;;5074461;28;19931;-58
2023/01/23 06:53:55;;;;;;;;;;;;;;;;;;5072176;28;19974;-58
2023/01/23 06:56:21;;;;;;;;;;;;;;;;;;5075051;28;20171;-58
2023/01/23 06:58:47;;;;;;;;;;;;;;;;;;5077055;28;19925;-58
2023/01/23 07:01:14;;;;;;;;;;;;;;;;;;5077027;28;19920;-59
2023/01/23 07:03:40;;;;;;;;;;;;;;;;;;5073380;28;20380;-59
2023/01/23 07:06:06;;;;;;;;;;;;;;;;;;5073662;28;20022;-60
2023/01/23 07:08:32;;;;;;;;;;;;;;;;;;5074883;28;20362;-58
2023/01/23 07:10:58;;;;;;;;;;;;;;;;;;5079109;28;19927;-58
2023/01/23 07:13:24;;;;;;;;;;;;;;;;;;5070488;28;19938;-59
2023/01/23 07:15:50;;;;;;;;;;;;;;;;;;5076622;28;19928;-58
2023/01/23 07:18:16;;;;;;;;;;;;;;;;;;5073549;28;19963;-58
2023/01/23 07:20:42;;;;;;;;;;;;;;;;;;5073383;28;20384;-58
2023/01/23 07:23:08;;;;;;;;;;;;;;;;;;5072458;28;19927;-58
2023/01/23 07:25:34;;;;;;;;;;;;;;;;;;5071524;28;19927;-58
2023/01/23 07:28:00;;;;;;;;;;;;;;;;;;5077845;28;20022;-58
2023/01/23 07:30:26;;;;;;;;;;;;;;;;;;5077858;28;19924;-58
2023/01/23 07:32:52;;;;;;;;;;;;;;;;;;5077439;28;20439;-58
2023/01/23 07:35:18;;;;;;;;;;;;;;;;;;5069868;28;19974;-58
2023/01/23 07:37:44;;;;;;;;;;;;;;;;;;5074186;28;19935;-58
2023/01/23 07:40:10;;;;;;;;;;;;;;;;;;5071800;28;19923;-57
2023/01/23 07:42:36;;;;;;;;;;;;;;;;;;5073911;28;20395;-58
2023/01/23 07:45:02;;;;;;;;;;;;;;;;;;5075534;28;20415;-60
2023/01/23 07:47:28;;;;;;;;;;;;;;;;;;5073359;28;20296;-58
2023/01/23 07:49:54;;;;;;;;;;;;;;;;;;5077145;28;19928;-58
2023/01/23 07:52:20;;;;;;;;;;;;;;;;;;5076356;28;19927;-58
2023/01/23 07:54:45;;;;;;;;;;;;;;;;;;5077421;28;20307;-60
2023/01/23 07:57:12;;;;;;;;;;;;;;;;;;5075411;28;19920;-58
2023/01/23 07:59:37;;;;;;;;;;;;;;;;;;5075841;28;20027;-59
2023/01/23 08:02:03;;;;;;;;;;;;;;;;;;5073894;28;20514;-58
2023/01/23 08:04:29;;;;;;;;;;;;;;;;;;5070421;28;19973;-58
2023/01/23 08:06:55;;;;;;;;;;;;;;;;;;5074074;28;19934;-58
2023/01/23 08:09:21;;;;;;;;;;;;;;;;;;5071446;28;19920;-58
2023/01/23 08:11:47;;;;;;;;;;;;;;;;;;5070574;28;20446;-58
2023/01/23 08:14:13;;;;;;;;;;;;;;;;;;5078018;28;20334;-60
2023/01/23 08:16:39;;;;;;;;;;;;;;;;;;5069208;28;20587;-58
2023/01/23 08:19:05;;;;;;;;;;;;;;;;;;5078576;28;20266;-58
2023/01/23 08:21:31;;;;;;;;;;;;;;;;;;5072605;28;19924;-59
2023/01/23 08:23:57;;;;;;;;;;;;;;;;;;5073644;28;19927;-60
2023/01/23 08:26:22;;;;;;;;;;;;;;;;;;5071861;28;20182;-59
2023/01/23 08:28:48;;;;;;;;;;;;;;;;;;5074641;28;19920;-57
2023/01/23 08:31:14;;;;;;;;;;;;;;;;;;5074472;28;19921;-58
2023/01/23 08:33:40;;;;;;;;;;;;;;;;;;5075482;28;19932;-58
2023/01/23 08:36:06;;;;;;;;;;;;;;;;;;5070261;28;19920;-58
2023/01/23 08:38:32;;;;;;;;;;;;;;;;;;5071130;28;20010;-58
2023/01/23 08:40:58;;;;;;;;;;;;;;;;;;5075039;28;19924;-58
2023/01/23 08:43:24;;;;;;;;;;;;;;;;;;5074522;28;19927;-53
2023/01/23 08:45:50;;;;;;;;;;;;;;;;;;5081380;28;19920;-58
2023/01/23 08:48:16;;;;;;;;;;;;;;;;;;5072878;28;19935;-56
2023/01/23 08:50:42;;;;;;;;;;;;;;;;;;5074812;28;19977;-57
2023/01/23 08:53:07;;;;;;;;;;;;;;;;;;5080595;28;19974;-59
2023/01/23 08:55:35;;;;;;;;;;;;;;;;;;5083438;28;19920;-59
2023/01/23 08:58:00;;;;;;;;;;;;;;;;;;5077169;28;20191;-61
2023/01/23 09:00:26;;;;;;;;;;;;;;;;;;5066386;28;19921;-57
2023/01/23 09:02:53;;;;;;;;;;;;;;;;;;5085781;28;19920;-57
2023/01/23 09:05:18;;;;;;;;;;;;;;;;;;5084666;28;20012;-57
2023/01/23 09:07:44;;;;;;;;;;;;;;;;;;5068049;28;19999;-57
2023/01/23 09:10:11;;;;;;;;;;;;;;;;;;5066321;28;19920;-57
2023/01/23 09:12:37;;;;;;;;;;;;;;;;;;5072669;28;19991;-60
2023/01/23 09:15:03;;;;;;;;;;;;;;;;;;5067207;28;19921;-58
2023/01/23 09:17:29;;;;;;;;;;;;;;;;;;5082890;28;19931;-60
2023/01/23 09:19:55;;;;;;;;;;;;;;;;;;5079051;28;19951;-57
2023/01/23 09:22:21;;;;;;;;;;;;;;;;;;5077278;28;19927;-58
2023/01/23 09:24:47;;;;;;;;;;;;;;;;;;5080028;28;19943;-59
2023/01/23 09:27:13;;;;;;;;;;;;;;;;;;5085537;28;19924;-60
2023/01/23 09:29:39;;;;;;;;;;;;;;;;;;5074318;28;20031;-57
2023/01/23 09:32:05;;;;;;;;;;;;;;;;;;5078868;28;20006;-57
2023/01/23 09:34:30;;;;;;;;;;;;;;;;;;5083600;28;19926;-58
2023/01/23 09:36:56;;;;;;;;;;;;;;;;;;5086143;28;20279;-58
2023/01/23 09:39:22;;;;;;;;;;;;;;;;;;5086733;28;19926;-58
2023/01/23 09:41:48;;;;;;;;;;;;;;;;;;5090983;28;19943;-57
2023/01/23 09:44:14;;;;;;;;;;;;;;;;;;5074587;28;20358;-58
2023/01/23 09:46:40;;;;;;;;;;;;;;;;;;5074402;28;19928;-59
2023/01/23 09:49:07;;;;;;;;;;;;;;;;;;5084597;28;19977;-59
2023/01/23 09:51:32;;;;;;;;;;;;;;;;;;5081592;28;19966;-57
2023/01/23 09:53:58;;;;;;;;;;;;;;;;;;5076315;28;19963;-58
2023/01/23 09:56:24;;;;;;;;;;;;;;;;;;5084499;28;20862;-60
2023/01/23 09:58:50;;;;;;;;;;;;;;;;;;5091462;28;20410;-58
2023/01/23 10:01:16;;;;;;;;;;;;;;;;;;5083411;28;20019;-58
2023/01/23 10:03:42;;;;;;;;;;;;;;;;;;5085187;28;19924;-57
2023/01/23 10:06:08;;;;;;;;;;;;;;;;;;5089261;28;19963;-57
2023/01/23 10:08:34;;;;;;;;;;;;;;;;;;5089730;28;20430;-59
2023/01/23 10:11:00;;;;;;;;;;;;;;;;;;5082679;28;19935;-56
2023/01/23 10:13:26;;;;;;;;;;;;;;;;;;5085155;28;20417;-58
2023/01/23 10:15:52;;;;;;;;;;;;;;;;;;5082604;28;19962;-60
2023/01/23 10:18:17;;;;;;;;;;;;;;;;;;5080257;28;20339;-58
2023/01/23 10:20:43;;;;;;;;;;;;;;;;;;5090026;28;19920;-58
2023/01/23 10:23:09;;;;;;;;;;;;;;;;;;5087933;28;19924;-57
2023/01/23 10:25:36;;;;;;;;;;;;;;;;;;5086318;28;20275;-57
2023/01/23 10:28:02;;;;;;;;;;;;;;;;;;5072240;28;19924;-57
2023/01/23 10:30:28;;;;;;;;;;;;;;;;;;5080984;28;19969;-57
2023/01/23 10:32:54;;;;;;;;;;;;;;;;;;5080101;28;20971;-57
2023/01/23 10:35:20;;;;;;;;;;;;;;;;;;5072995;28;19928;-57
2023/01/23 10:37:46;;;;;;;;;;;;;;;;;;5086604;28;20407;-57
2023/01/23 10:40:12;;;;;;;;;;;;;;;;;;5078881;28;19966;-57
2023/01/23 10:42:38;;;;;;;;;;;;;;;;;;5079800;28;20020;-57
2023/01/23 10:45:04;;;;;;;;;;;;;;;;;;5078830;28;20388;-56
2023/01/23 10:47:30;;;;;;;;;;;;;;;;;;5071438;28;20295;-59
2023/01/23 10:49:56;;;;;;;;;;;;;;;;;;5086671;28;19981;-57
2023/01/23 10:52:22;;;;;;;;;;;;;;;;;;5088973;28;19920;-57
2023/01/23 10:54:48;;;;;;;;;;;;;;;;;;5089339;28;19975;-57
2023/01/23 10:57:14;;;;;;;;;;;;;;;;;;5085983;28;19920;-57
2023/01/23 10:59:40;;;;;;;;;;;;;;;;;;5088498;28;19955;-57
2023/01/23 11:02:06;;;;;;;;;;;;;;;;;;5088816;28;19924;-57
2023/01/23 11:04:32;;;;;;;;;;;;;;;;;;5087533;28;19974;-57
2023/01/23 11:06:58;;;;;;;;;;;;;;;;;;5082344;28;20390;-57
2023/01/23 11:09:24;;;;;;;;;;;;;;;;;;5083905;28;19920;-57
2023/01/23 11:11:50;;;;;;;;;;;;;;;;;;5070762;28;19921;-58
2023/01/23 11:14:20;;;;;;;;;;;;;;;;;;5076757;28;19924;-58
2023/01/23 11:16:46;;;;;;;;;;;;;;;;;;5077153;28;19925;-56
2023/01/23 11:19:12;;;;;;;;;;;;;;;;;;5080418;28;19927;-59
2023/01/23 11:21:38;;;;;;;;;;;;;;;;;;5078345;28;19985;-59
2023/01/23 11:24:04;;;;;;;;;;;;;;;;;;5073614;28;19928;-57
2023/01/23 11:26:30;;;;;;;;;;;;;;;;;;5069304;28;19982;-59
2023/01/23 11:28:56;;;;;;;;;;;;;;;;;;5076493;28;19967;-56
2023/01/23 11:31:21;;;;;;;;;;;;;;;;;;5077593;28;19920;-58
2023/01/23 11:33:50;;;;;;;;;;;;;;;;;;5070057;28;19928;-57
2023/01/23 11:36:16;;;;;;;;;;;;;;;;;;5084495;28;20401;-57
2023/01/23 11:38:42;;;;;;;;;;;;;;;;;;5082660;28;19963;-60
2023/01/23 11:41:08;;;;;;;;;;;;;;;;;;5080289;28;20003;-57
2023/01/23 11:43:34;;;;;;;;;;;;;;;;;;5084175;28;20029;-57
2023/01/23 11:46:00;;;;;;;;;;;;;;;;;;5073830;28;19920;-57
2023/01/23 11:48:26;;;;;;;;;;;;;;;;;;5066499;28;20288;-58
2023/01/23 11:50:52;;;;;;;;;;;;;;;;;;5074607;28;19971;-58
2023/01/23 11:53:18;;;;;;;;;;;;;;;;;;5073887;28;19998;-58
2023/01/23 11:55:44;;;;;;;;;;;;;;;;;;5079746;28;20008;-59
2023/01/23 11:58:13;;;;;;;;;;;;;;;;;;5078630;28;20398;-58
2023/01/23 12:00:39;;;;;;;;;;;;;;;;;;5075602;28;19920;-58
2023/01/23 12:03:05;;;;;;;;;;;;;;;;;;5082166;28;19926;-59
2023/01/23 12:05:31;;;;;;;;;;;;;;;;;;5077227;28;19926;-57
2023/01/23 12:07:56;;;;;;;;;;;;;;;;;;5074520;28;19920;-57
2023/01/23 12:10:23;;;;;;;;;;;;;;;;;;5083295;28;19926;-57
2023/01/23 12:12:50;;;;;;;;;;;;;;;;;;5081816;28;20197;-57
2023/01/23 12:15:16;;;;;;;;;;;;;;;;;;5067720;28;20113;-57
2023/01/23 12:17:42;;;;;;;;;;;;;;;;;;5071353;28;19974;-59
2023/01/23 12:20:08;;;;;;;;;;;;;;;;;;5067442;28;19920;-58
2023/01/23 12:22:33;;;;;;;;;;;;;;;;;;5073535;28;19926;-57
2023/01/23 12:24:59;;;;;;;;;;;;;;;;;;5071779;28;20401;-57
2023/01/23 12:27:26;;;;;;;;;;;;;;;;;;5074561;28;19945;-58
2023/01/23 12:29:51;;;;;;;;;;;;;;;;;;5082064;28;19921;-57
2023/01/23 12:32:17;;;;;;;;;;;;;;;;;;5073189;28;19986;-57
2023/01/23 12:34:44;;;;;;;;;;;;;;;;;;5071912;28;20397;-57
2023/01/23 12:37:10;;;;;;;;;;;;;;;;;;5070386;28;19920;-57
2023/01/23 12:39:36;;;;;;;;;;;;;;;;;;5087589;28;19924;-58
2023/01/23 12:42:02;;;;;;;;;;;;;;;;;;5073349;28;20332;-57
2023/01/23 12:44:28;;;;;;;;;;;;;;;;;;5082313;28;19962;-57
2023/01/23 12:46:54;;;;;;;;;;;;;;;;;;5067187;28;20326;-57
2023/01/23 12:49:21;;;;;;;;;;;;;;;;;;5069827;28;20398;-58
2023/01/23 12:51:46;;;;;;;;;;;;;;;;;;5069121;28;19931;-57
2023/01/23 12:54:12;;;;;;;;;;;;;;;;;;5073412;28;20326;-56
2023/01/23 12:56:38;;;;;;;;;;;;;;;;;;5085128;28;19920;-58
2023/01/23 12:59:05;;;;;;;;;;;;;;;;;;5085614;28;19952;-58
2023/01/23 13:01:30;;;;;;;;;;;;;;;;;;5084863;28;19920;-58
2023/01/23 13:03:56;;;;;;;;;;;;;;;;;;5084544;28;19924;-57
2023/01/23 13:06:22;;;;;;;;;;;;;;;;;;5085072;28;20504;-59
2023/01/23 13:08:48;;;;;;;;;;;;;;;;;;5085453;28;19920;-59
2023/01/23 13:13:59;;;;;;;;;;;;;;;;;;5086096;28;19959;-58
2023/01/23 13:16:25;;;;;;;;;;;;;;;;;;5083488;28;19955;-58
2023/01/23 13:25:08;;;;;;;;;;;;;;;;;;5086433;28;19928;-57
2023/01/23 13:27:07;;;;;;;;;;;;;;;;;;5087604;28;19927;-58
2023/01/23 13:29:33;;;;;;;;;;;;;;;;;;5087676;28;19920;-57
2023/01/23 13:31:59;;;;;;;;;;;;;;;;;;5086426;28;20602;-57
2023/01/23 13:34:25;;;;;;;;;;;;;;;;;;5086571;28;19934;-57
2023/01/23 13:36:51;;;;;;;;;;;;;;;;;;5087085;28;19927;-59
2023/01/23 13:39:21;;;;;;;;;;;;;;;;;;5086357;28;20368;-57
2023/01/23 13:41:47;;;;;;;;;;;;;;;;;;5087426;28;19919;-58
2023/01/23 13:44:13;;;;;;;;;;;;;;;;;;5087449;28;20004;-57
2023/01/23 13:46:39;;;;;;;;;;;;;;;;;;5086891;28;19920;-60
2023/01/23 13:51:49;;;;;;;;;;;;;;;;;;5081703;28;19925;-59
2023/01/23 13:57:13;;;;;;;;;;;;;;;;;;5045070;28;19921;-57
2023/01/23 13:59:39;;;;;;;;;;;;;;;;;;5073446;28;20397;-58
2023/01/23 14:05:23;;;;;;;;;;;;;;;;;;5073713;28;20014;-57
2023/01/23 14:07:42;;;;;;;;;;;;;;;;;;5066775;28;19924;-58
2023/01/23 14:10:08;;;;;;;;;;;;;;;;;;5080978;28;20427;-58
2023/01/23 14:12:34;;;;;;;;;;;;;;;;;;5085104;28;19920;-57
2023/01/23 14:17:45;;;;;;;;;;;;;;;;;;5072042;28;20401;-58
2023/01/23 14:20:11;;;;;;;;;;;;;;;;;;5081174;28;19936;-57
2023/01/23 14:22:37;;;;;;;;;;;;;;;;;;5073687;28;19920;-61
2023/01/23 14:25:03;;;;;;;;;;;;;;;;;;5080141;28;20383;-57
2023/01/23 14:27:29;;;;;;;;;;;;;;;;;;5087250;28;19924;-59
2023/01/23 14:29:55;;;;;;;;;;;;;;;;;;5086870;28;20006;-58
2023/01/23 14:32:22;;;;;;;;;;;;;;;;;;5073512;28;20016;-57
2023/01/23 14:34:48;;;;;;;;;;;;;;;;;;5073016;28;19930;-58
2023/01/23 14:37:14;;;;;;;;;;;;;;;;;;5068515;28;19925;-59
2023/01/23 14:39:41;;;;;;;;;;;;;;;;;;5079098;28;20046;-57
2023/01/23 14:42:07;;;;;;;;;;;;;;;;;;5087372;28;19924;-58
2023/01/23 14:44:33;;;;;;;;;;;;;;;;;;5084548;28;19963;-58
2023/01/23 14:46:58;;;;;;;;;;;;;;;;;;5082700;28;19982;-57
2023/01/23 14:49:24;;;;;;;;;;;;;;;;;;5086124;28;20006;-57
2023/01/23 14:51:50;;;;;;;;;;;;;;;;;;5087051;28;20375;-58
2023/01/23 14:54:16;;;;;;;;;;;;;;;;;;5076903;28;19989;-58
2023/01/23 14:56:42;;;;;;;;;;;;;;;;;;5086834;28;19931;-57
2023/01/23 14:59:08;;;;;;;;;;;;;;;;;;5082662;28;19924;-57
2023/01/23 15:01:34;;;;;;;;;;;;;;;;;;5088984;28;19920;-59
2023/01/23 15:04:00;;;;;;;;;;;;;;;;;;5086365;28;19924;-57
2023/01/23 15:06:26;;;;;;;;;;;;;;;;;;5083287;28;20291;-57
2023/01/23 15:08:52;;;;;;;;;;;;;;;;;;5086226;28;19920;-57
2023/01/23 15:11:18;;;;;;;;;;;;;;;;;;5086370;28;19924;-57
2023/01/23 15:13:44;;;;;;;;;;;;;;;;;;5081018;28;19927;-57
2023/01/23 15:16:10;;;;;;;;;;;;;;;;;;5084491;28;20283;-57
2023/01/23 15:18:35;;;;;;;;;;;;;;;;;;5077875;28;19920;-56
2023/01/23 15:21:01;;;;;;;;;;;;;;;;;;5083776;28;19920;-57
2023/01/23 15:23:30;;;;;;;;;;;;;;;;;;5081179;28;20457;-57
2023/01/23 15:25:55;;;;;;;;;;;;;;;;;;5077180;28;20326;-57
2023/01/23 15:28:21;;;;;;;;;;;;;;;;;;5068325;28;20011;-58
2023/01/23 15:30:47;;;;;;;;;;;;;;;;;;5068569;28;19927;-58
2023/01/23 15:33:13;;;;;;;;;;;;;;;;;;5069246;28;19972;-57
2023/01/23 15:35:39;;;;;;;3.40;3.10;;;;;;;;;;5079828;28;20070;-58
2023/01/23 15:38:05;;;;;;;2.28;2.10;;;;;;;;;;5080779;28;20037;-59
2023/01/23 15:40:37;;;;;;;2.30;2.10;;;;;;;;;;5069455;28;20182;-57
2023/01/23 15:43:10;;;;;;;2.10;1.90;;;;;;;;;;5068327;28;20045;-57
2023/01/23 15:45:36;;;;;;;1.73;1.63;;;;;;;;;;5066797;28;20048;-57
2023/01/23 15:48:02;;;;;;;2.10;1.90;;;;;;;;;;5069094;28;20048;-57
2023/01/23 15:50:28;;;;;;;1.70;1.60;;;;;;;;;;5066233;28;20075;-58
2023/01/23 15:52:54;;;;;;;;;;;;;;;;;;5081299;28;19927;-57
2023/01/23 15:55:20;;;;;;;;;;;;;;;;;;5085105;28;19945;-57
2023/01/23 15:57:46;;;;;;;;;;;;;;;;;;5085368;28;19931;-59
2023/01/23 16:00:12;;;;;;;;;;;;;;;;;;5084917;28;19920;-58
2023/01/23 16:02:38;;;;;;;;;;;;;;;;;;5085720;28;20003;-57
2023/01/23 16:05:04;;;;;;;;;;;;;;;;;;5085530;28;20059;-57
2023/01/23 16:07:30;;;;;;;;;;;;;;;;;;5084900;28;20025;-58
2023/01/23 16:09:56;;;;;;;;;;;;;;;;;;5085484;28;20391;-57
2023/01/23 16:12:22;;;;;;;;;;;;;;;;;;5086152;28;19965;-57
2023/01/23 16:14:48;;;;;;;;;;;;;;;;;;5084666;28;20111;-58
2023/01/23 16:17:14;;;;;;;;;;;;;;;;;;5085848;28;20459;-60
2023/01/23 16:19:40;;;;;;;;;;;;;;;;;;5085496;28;20368;-57
2023/01/23 16:22:06;;;;;;;;;;;;;;;;;;5081205;28;19938;-56
2023/01/23 16:24:32;;;;;;;;;;;;;;;;;;5072264;28;20014;-58
2023/01/23 16:27:00;;;;;;;3.78;3.15;;;;;;;;;;5073709;28;20585;-63
2023/01/23 16:29:26;;;;;;;3.30;3.00;;;;;;;;;;5066977;28;20044;-63
2023/01/23 16:31:53;;;;;;;4.38;3.40;;;;;;;;;;5069245;28;20058;-61
2023/01/23 16:34:19;;;;;;;3.70;3.25;;;;;;;;;;5081850;28;20063;-60
2023/01/23 16:36:45;;;;;;;;;;;;;;;;;;5086724;28;19954;-60
2023/01/23 16:39:11;;;;;;;;;;;;;;;;;;5086729;28;19924;-59
2023/01/23 16:41:36;;;;;;;;;;;;;;;;;;5086615;28;20444;-58
2023/01/23 16:44:02;;;;;;;;;;;;;;;;;;5086785;28;19931;-58
2023/01/23 16:46:28;;;;;;;;;;;;;;;;;;5086118;28;19989;-59
2023/01/23 16:48:55;;;;;;;;;;;;;;;;;;5074351;28;20540;-58
2023/01/23 16:51:22;;;;;;;;;;;;;;;;;;5070162;28;20030;-58
2023/01/23 16:53:47;;;;;;;;;;;;;;;;;;5070485;28;19959;-58
2023/01/23 16:56:13;;;;;;;;;;;;;;;;;;5066912;28;20405;-60
2023/01/23 16:58:39;;;;;;;;;;;;;;;;;;5076753;28;20038;-58
2023/01/23 17:01:05;;;;;;;;;;;;;;;;;;5068661;28;19947;-59